Friday, January 30, 2015
00:24 UTC
  |  Log In   |  Register Free
Airport Search:

Lewis University Airport
(KLOT)

Lewis University Airport Diagram
No Airport Diagram Available

FAA data valid effective January 08, 2015 - March 05, 2015 (unless otherwise noted).

 
 
 
 
 
 
 
 
 
 
 
 
 
 

Current Aviation Weather for Lewis University Airport (KLOT)

The most recent METAR observation for KLOT was updated at: 0012
METAR Summary (Translated METAR)
KLOT
292355Z AUTO 33011G18KT 10SM OVC030 02/M04 A3017 RMK AO2 T00151038 10015 20007
KJOT
292355Z AUTO 33008G16KT 10SM OVC032 02/M04 A3018 RMK AO2 T00151038 10015 20007
(6.4 nm SW from KLOT)
KC09
292355Z AUTO 30006KT 10SM OVC030 01/00 A3018 RMK AO2 T00101005 10016 20010
(18.2 nm SW from KLOT)
TAF
No TAF information found within 50 nm of KLOT
  Airport Weather Conditions for KLOT

 Current Weather at LOT
34° F
Overcast
Northwest winds at 10.4 mph
LOT NOAA Radar

Pressure: 30.16 in
Humidity: 69%
Wind: Northwest at 10.4 MPH (9 KT)
Dew Point: 25.2°F
Visibility: 10.00 mi


Airport Weather Forecast for KLOT

Translated METAR and TAF for KLOT
Translated METAR for KLOT (0025 UTC 30 January 2015)
found at http://aviationweather.gov/adds/metars/
 
METAR text: KLOT 300015Z AUTO 34009KT 10SM OVC034 01/M04 A3018 RMK AO2 T00141038
Conditions at: KLOT (ROMEOVILLE/CHI , IL, US) observed 0015 UTC 30 January 2015
Temperature: 1.4°C (35°F)
Dewpoint: -3.8°C (25°F) [RH = 68%]
Pressure (altimeter): 30.18 inches Hg (1022.1 mb)
Winds: from the NNW (340 degrees) at 10 MPH (9 knots; 4.7 m/s)
Visibility: 10 or more miles (16+ km)
Ceiling: 3400 feet AGL
Clouds: overcast cloud deck at 3400 feet AGL
Weather: automated observation with no human augmentation;
there may or may not be significant weather present at this time
Translated TAF for KLOT

There is no translated TAF available for this airport

Find All Airport Services Find A Hotel Find A Rental Car Find A Golf Course Find A Restaurant $100 Hamburger



FBO's on the Field
FBO Company Facility Photos Services Transportation Aviation Fuel Prices: Prices include tax
Catering Weather Repair Courtesy Rental Type 100LL JetA JetA+ MOGAS 8087
 
Lewis University Airport

This FBO has not yet been rated
FS:Phillips 66
Last Updated: Dec-30
Login to update fuel prices
SS:
Contact Lewis University AirportMore FBO Information
 
Add another FBO Facility Photos Catering Weather Repair Courtesy Rental Type 100LL JetA JetA+ MOGAS 8087
Services Transportation Aviation Fuel Prices: Prices include tax


model-print
model-print
model-print
model-print